sensor_id;sensor_type;location;lat;lon;timestamp;pressure;altitude;pressure_sealevel;temperature;humidity
44926;BME280;30662;51.210;7.656;2023-05-19T00:01:55;151101.50;;;9.21;94.94
44926;BME280;30662;51.210;7.656;2023-05-19T00:04:22;151044.56;;;8.98;95.82
44926;BME280;30662;51.210;7.656;2023-05-19T00:06:49;151010.47;;;8.84;96.53
44926;BME280;30662;51.210;7.656;2023-05-19T00:09:16;150986.41;;;8.74;97.40
44926;BME280;30662;51.210;7.656;2023-05-19T00:11:42;150952.28;;;8.61;98.75
44926;BME280;30662;51.210;7.656;2023-05-19T00:14:09;150952.28;;;8.61;99.27
44926;BME280;30662;51.210;7.656;2023-05-19T00:16:36;150957.38;;;8.63;99.48
44926;BME280;30662;51.210;7.656;2023-05-19T00:19:06;150968.72;;;8.67;98.83
44926;BME280;30662;51.210;7.656;2023-05-19T00:21:36;150939.66;;;8.55;99.56
44926;BME280;30662;51.210;7.656;2023-05-19T00:24:05;150963.66;;;8.65;99.18
44926;BME280;30662;51.210;7.656;2023-05-19T00:26:31;150952.28;;;8.61;99.38
44926;BME280;30662;51.210;7.656;2023-05-19T00:28:57;150916.88;;;8.46;100.00
44926;BME280;30662;51.210;7.656;2023-05-19T00:31:23;150913.09;;;8.45;100.00
44926;BME280;30662;51.210;7.656;2023-05-19T00:33:49;150942.19;;;8.56;100.00
44926;BME280;30662;51.210;7.656;2023-05-19T00:36:16;150913.09;;;8.45;100.00
44926;BME280;30662;51.210;7.656;2023-05-19T00:38:42;150894.13;;;8.37;100.00
44926;BME280;30662;51.210;7.656;2023-05-19T00:41:08;150937.09;;;8.54;100.00
44926;BME280;30662;51.210;7.656;2023-05-19T00:43:34;150939.66;;;8.55;100.00
44926;BME280;30662;51.210;7.656;2023-05-19T00:46:00;150949.75;;;8.60;100.00
44926;BME280;30662;51.210;7.656;2023-05-19T00:48:26;150951.00;;;8.60;100.00
44926;BME280;30662;51.210;7.656;2023-05-19T00:50:55;150951.00;;;8.60;100.00
44926;BME280;30662;51.210;7.656;2023-05-19T00:53:27;150951.00;;;8.60;100.00
44926;BME280;30662;51.210;7.656;2023-05-19T00:55:53;150923.22;;;8.49;100.00
44926;BME280;30662;51.210;7.656;2023-05-19T00:58:19;150899.19;;;8.39;100.00
44926;BME280;30662;51.210;7.656;2023-05-19T01:00:45;150935.84;;;8.54;100.00
44926;BME280;30662;51.210;7.656;2023-05-19T01:03:11;150952.28;;;8.61;100.00
44926;BME280;30662;51.210;7.656;2023-05-19T01:05:41;150952.28;;;8.61;100.00
44926;BME280;30662;51.210;7.656;2023-05-19T01:08:09;150975.06;;;8.70;100.00
44926;BME280;30662;51.210;7.656;2023-05-19T01:10:35;150994.03;;;8.77;100.00
44926;BME280;30662;51.210;7.656;2023-05-19T01:13:02;150977.59;;;8.71;100.00
44926;BME280;30662;51.210;7.656;2023-05-19T01:15:29;150996.53;;;8.78;99.62
44926;BME280;30662;51.210;7.656;2023-05-19T01:18:12;151037.00;;;8.95;98.06
44926;BME280;30662;51.210;7.656;2023-05-19T01:20:44;151005.38;;;8.82;98.06
44926;BME280;30662;51.210;7.656;2023-05-19T01:23:50;150969.97;;;8.68;99.30
44926;BME280;30662;51.210;7.656;2023-05-19T01:26:34;150967.44;;;8.67;99.34
44926;BME280;30662;51.210;7.656;2023-05-19T01:32:08;150915.63;;;8.46;100.00
44926;BME280;30662;51.210;7.656;2023-05-19T01:34:40;150929.53;;;8.51;100.00
44926;BME280;30662;51.210;7.656;2023-05-19T01:37:08;150948.50;;;8.59;99.58
44926;BME280;30662;51.210;7.656;2023-05-19T01:39:34;150886.53;;;8.34;100.00
44926;BME280;30662;51.210;7.656;2023-05-19T01:42:01;150861.22;;;8.24;100.00
44926;BME280;30662;51.210;7.656;2023-05-19T01:44:28;150857.44;;;8.22;100.00
44926;BME280;30662;51.210;7.656;2023-05-19T01:46:54;150876.41;;;8.30;100.00
44926;BME280;30662;51.210;7.656;2023-05-19T01:49:20;150846.06;;;8.18;100.00
44926;BME280;30662;51.210;7.656;2023-05-19T01:51:48;150832.19;;;8.12;100.00
44926;BME280;30662;51.210;7.656;2023-05-19T01:54:14;150786.69;;;7.94;100.00
44926;BME280;30662;51.210;7.656;2023-05-19T01:57:15;150825.84;;;8.10;100.00
44926;BME280;30662;51.210;7.656;2023-05-19T02:00:12;150799.31;;;7.99;100.00
44926;BME280;30662;51.210;7.656;2023-05-19T02:05:33;150828.34;;;8.11;100.00
44926;BME280;30662;51.210;7.656;2023-05-19T02:08:08;150803.09;;;8.00;100.00
44926;BME280;30662;51.210;7.656;2023-05-19T02:10:39;150810.66;;;8.03;100.00
44926;BME280;30662;51.210;7.656;2023-05-19T02:13:08;150785.41;;;7.93;100.00
44926;BME280;30662;51.210;7.656;2023-05-19T02:15:39;150817.00;;;8.06;100.00
44926;BME280;30662;51.210;7.656;2023-05-19T02:18:10;150823.31;;;8.09;100.00
44926;BME280;30662;51.210;7.656;2023-05-19T02:20:37;150828.34;;;8.11;100.00
44926;BME280;30662;51.210;7.656;2023-05-19T02:23:04;150851.13;;;8.20;100.00
44926;BME280;30662;51.210;7.656;2023-05-19T02:25:29;150839.75;;;8.15;100.00
44926;BME280;30662;51.210;7.656;2023-05-19T02:27:57;150852.41;;;8.20;100.00
44926;BME280;30662;51.210;7.656;2023-05-19T02:30:22;150848.63;;;8.19;100.00
44926;BME280;30662;51.210;7.656;2023-05-19T02:32:48;150857.44;;;8.22;99.81
44926;BME280;30662;51.210;7.656;2023-05-19T02:35:15;150873.88;;;8.29;99.29
44926;BME280;30662;51.210;7.656;2023-05-19T02:37:41;150823.31;;;8.09;100.00
44926;BME280;30662;51.210;7.656;2023-05-19T02:40:07;150795.53;;;7.97;100.00
44926;BME280;30662;51.210;7.656;2023-05-19T02:42:33;150835.97;;;8.14;100.00
44926;BME280;30662;51.210;7.656;2023-05-19T02:44:59;150819.53;;;8.07;100.00
44926;BME280;30662;51.210;7.656;2023-05-19T02:47:25;150818.28;;;8.07;100.00
44926;BME280;30662;51.210;7.656;2023-05-19T02:49:51;150824.56;;;8.09;99.97
44926;BME280;30662;51.210;7.656;2023-05-19T02:52:17;150829.66;;;8.11;99.97
44926;BME280;30662;51.210;7.656;2023-05-19T02:54:43;150805.63;;;8.01;100.00
44926;BME280;30662;51.210;7.656;2023-05-19T02:57:09;150785.41;;;7.93;100.00
44926;BME280;30662;51.210;7.656;2023-05-19T02:59:35;150792.97;;;7.96;100.00
44926;BME280;30662;51.210;7.656;2023-05-19T03:02:02;150780.38;;;7.91;100.00
44926;BME280;30662;51.210;7.656;2023-05-19T03:04:28;150776.59;;;7.90;100.00
44926;BME280;30662;51.210;7.656;2023-05-19T03:06:55;150763.94;;;7.85;100.00
44926;BME280;30662;51.210;7.656;2023-05-19T03:09:21;150789.19;;;7.95;100.00
44926;BME280;30662;51.210;7.656;2023-05-19T03:11:46;150736.13;;;7.73;100.00
44926;BME280;30662;51.210;7.656;2023-05-19T03:14:12;150746.25;;;7.78;100.00
44926;BME280;30662;51.210;7.656;2023-05-19T03:16:39;150734.88;;;7.73;100.00
44926;BME280;30662;51.210;7.656;2023-05-19T03:19:08;150710.88;;;7.63;100.00
44926;BME280;30662;51.210;7.656;2023-05-19T03:21:34;150720.97;;;7.67;100.00
44926;BME280;30662;51.210;7.656;2023-05-19T03:24:01;150717.19;;;7.66;100.00
44926;BME280;30662;51.210;7.656;2023-05-19T03:26:27;150715.94;;;7.65;100.00
44926;BME280;30662;51.210;7.656;2023-05-19T03:28:57;150722.28;;;7.68;100.00
44926;BME280;30662;51.210;7.656;2023-05-19T03:31:23;150719.69;;;7.67;100.00
44926;BME280;30662;51.210;7.656;2023-05-19T03:33:49;150669.22;;;7.46;100.00
44926;BME280;30662;51.210;7.656;2023-05-19T03:36:15;150717.19;;;7.66;100.00
44926;BME280;30662;51.210;7.656;2023-05-19T03:38:42;150719.69;;;7.67;100.00
44926;BME280;30662;51.210;7.656;2023-05-19T03:41:07;150666.66;;;7.45;100.00
44926;BME280;30662;51.210;7.656;2023-05-19T03:43:33;150688.16;;;7.54;100.00
44926;BME280;30662;51.210;7.656;2023-05-19T03:45:59;150662.88;;;7.44;100.00
44926;BME280;30662;51.210;7.656;2023-05-19T03:48:26;150702.03;;;7.60;100.00
44926;BME280;30662;51.210;7.656;2023-05-19T03:50:52;150688.16;;;7.54;100.00
44926;BME280;30662;51.210;7.656;2023-05-19T03:53:18;150662.88;;;7.44;100.00
44926;BME280;30662;51.210;7.656;2023-05-19T03:55:45;150696.97;;;7.58;100.00
44926;BME280;30662;51.210;7.656;2023-05-19T03:58:12;150661.59;;;7.43;100.00
44926;BME280;30662;51.210;7.656;2023-05-19T04:00:39;150713.41;;;7.64;100.00
44926;BME280;30662;51.210;7.656;2023-05-19T04:03:05;150710.88;;;7.63;100.00
44926;BME280;30662;51.210;7.656;2023-05-19T04:05:31;150726.06;;;7.69;100.00
44926;BME280;30662;51.210;7.656;2023-05-19T04:07:59;150732.34;;;7.72;100.00
44926;BME280;30662;51.210;7.656;2023-05-19T04:10:25;150726.06;;;7.69;100.00
44926;BME280;30662;51.210;7.656;2023-05-19T04:12:51;150714.66;;;7.65;100.00
44926;BME280;30662;51.210;7.656;2023-05-19T04:15:17;150714.66;;;7.65;100.00
44926;BME280;30662;51.210;7.656;2023-05-19T04:17:43;150723.53;;;7.68;100.00
44926;BME280;30662;51.210;7.656;2023-05-19T04:20:09;150733.59;;;7.72;100.00
44926;BME280;30662;51.210;7.656;2023-05-19T04:22:35;150743.75;;;7.77;100.00
44926;BME280;30662;51.210;7.656;2023-05-19T04:25:01;150737.38;;;7.74;100.00
44926;BME280;30662;51.210;7.656;2023-05-19T04:27:29;150758.91;;;7.83;100.00
44926;BME280;30662;51.210;7.656;2023-05-19T04:29:56;150780.38;;;7.91;100.00
44926;BME280;30662;51.210;7.656;2023-05-19T04:32:22;150803.09;;;8.00;100.00
44926;BME280;30662;51.210;7.656;2023-05-19T04:34:48;150780.38;;;7.91;100.00
44926;BME280;30662;51.210;7.656;2023-05-19T04:37:14;150786.69;;;7.94;100.00
44926;BME280;30662;51.210;7.656;2023-05-19T04:39:44;150772.75;;;7.88;100.00
44926;BME280;30662;51.210;7.656;2023-05-19T04:42:11;150782.91;;;7.92;100.00
44926;BME280;30662;51.210;7.656;2023-05-19T04:44:38;150810.66;;;8.03;100.00
44926;BME280;30662;51.210;7.656;2023-05-19T04:47:06;150823.31;;;8.09;100.00
44926;BME280;30662;51.210;7.656;2023-05-19T04:49:34;150815.75;;;8.06;100.00
44926;BME280;30662;51.210;7.656;2023-05-19T04:52:07;150823.31;;;8.09;100.00
44926;BME280;30662;51.210;7.656;2023-05-19T04:54:36;150825.84;;;8.10;100.00
44926;BME280;30662;51.210;7.656;2023-05-19T04:57:02;150894.13;;;8.37;98.70
44926;BME280;30662;51.210;7.656;2023-05-19T04:59:28;150885.25;;;8.34;99.35
44926;BME280;30662;51.210;7.656;2023-05-19T05:01:54;150856.19;;;8.22;99.95
44926;BME280;30662;51.210;7.656;2023-05-19T05:04:22;150877.66;;;8.30;100.00
44926;BME280;30662;51.210;7.656;2023-05-19T05:06:48;150867.56;;;8.26;99.63
44926;BME280;30662;51.210;7.656;2023-05-19T05:09:16;150856.19;;;8.22;99.71
44926;BME280;30662;51.210;7.656;2023-05-19T05:11:43;150921.97;;;8.48;97.12
44926;BME280;30662;51.210;7.656;2023-05-19T05:14:09;150895.41;;;8.38;97.61
44926;BME280;30662;51.210;7.656;2023-05-19T05:16:35;150889.09;;;8.35;97.83
44926;BME280;30662;51.210;7.656;2023-05-19T05:19:02;150877.66;;;8.30;98.78
44926;BME280;30662;51.210;7.656;2023-05-19T05:21:28;150873.88;;;8.29;100.00
44926;BME280;30662;51.210;7.656;2023-05-19T05:23:54;150906.78;;;8.42;98.82
44926;BME280;30662;51.210;7.656;2023-05-19T05:26:20;150925.75;;;8.50;100.00
44926;BME280;30662;51.210;7.656;2023-05-19T05:28:49;150982.63;;;8.73;97.58
44926;BME280;30662;51.210;7.656;2023-05-19T05:31:15;150999.06;;;8.79;96.91
44926;BME280;30662;51.210;7.656;2023-05-19T05:33:41;150995.28;;;8.78;97.44
44926;BME280;30662;51.210;7.656;2023-05-19T05:36:08;150977.59;;;8.71;96.72
44926;BME280;30662;51.210;7.656;2023-05-19T05:38:34;150976.31;;;8.70;96.89
44926;BME280;30662;51.210;7.656;2023-05-19T05:41:01;150985.16;;;8.74;97.39
44926;BME280;30662;51.210;7.656;2023-05-19T05:43:28;151000.31;;;8.80;95.62
44926;BME280;30662;51.210;7.656;2023-05-19T05:45:55;151018.03;;;8.87;95.38
44926;BME280;30662;51.210;7.656;2023-05-19T05:48:21;151054.69;;;9.02;95.50
44926;BME280;30662;51.210;7.656;2023-05-19T05:50:48;151073.66;;;9.09;95.85
44926;BME280;30662;51.210;7.656;2023-05-19T05:53:18;151087.59;;;9.15;94.52
44926;BME280;30662;51.210;7.656;2023-05-19T05:55:46;151081.28;;;9.13;95.83
44926;BME280;30662;51.210;7.656;2023-05-19T05:58:12;151078.69;;;9.11;93.32
44926;BME280;30662;51.210;7.656;2023-05-19T06:00:40;151063.56;;;9.05;95.44
44926;BME280;30662;51.210;7.656;2023-05-19T06:03:08;151130.56;;;9.32;94.38
44926;BME280;30662;51.210;7.656;2023-05-19T06:05:36;151172.34;;;9.49;92.55
44926;BME280;30662;51.210;7.656;2023-05-19T06:08:02;151143.22;;;9.37;90.70
44926;BME280;30662;51.210;7.656;2023-05-19T06:10:28;151139.44;;;9.36;90.12
44926;BME280;30662;51.210;7.656;2023-05-19T06:12:55;151150.78;;;9.40;91.61
44926;BME280;30662;51.210;7.656;2023-05-19T06:15:21;151192.56;;;9.57;91.85
44926;BME280;30662;51.210;7.656;2023-05-19T06:17:47;151173.59;;;9.50;92.55
44926;BME280;30662;51.210;7.656;2023-05-19T06:20:13;151188.75;;;9.56;91.14
44926;BME280;30662;51.210;7.656;2023-05-19T06:22:39;151200.13;;;9.60;93.29
44926;BME280;30662;51.210;7.656;2023-05-19T06:25:05;151233.03;;;9.74;92.44
44926;BME280;30662;51.210;7.656;2023-05-19T06:27:34;151262.16;;;9.85;93.91
44926;BME280;30662;51.210;7.656;2023-05-19T06:30:01;151240.59;;;9.77;93.68
44926;BME280;30662;51.210;7.656;2023-05-19T06:32:27;151255.81;;;9.83;94.65
44926;BME280;30662;51.210;7.656;2023-05-19T06:34:54;151296.28;;;9.99;95.39
44926;BME280;30662;51.210;7.656;2023-05-19T06:37:21;151327.94;;;10.12;95.19
44926;BME280;30662;51.210;7.656;2023-05-19T06:39:52;151360.88;;;10.25;92.22
44926;BME280;30662;51.210;7.656;2023-05-19T06:42:18;151383.66;;;10.34;90.93
44926;BME280;30662;51.210;7.656;2023-05-19T06:44:49;151410.25;;;10.45;91.63
44926;BME280;30662;51.210;7.656;2023-05-19T06:47:20;151421.63;;;10.49;89.53
44926;BME280;30662;51.210;7.656;2023-05-19T06:49:46;151467.22;;;10.68;87.50
44926;BME280;30662;51.210;7.656;2023-05-19T06:52:15;151510.25;;;10.85;88.21
44926;BME280;30662;51.210;7.656;2023-05-19T06:54:41;151550.81;;;11.01;84.65
44926;BME280;30662;51.210;7.656;2023-05-19T06:57:07;151560.91;;;11.05;83.54
44926;BME280;30662;51.210;7.656;2023-05-19T06:59:33;151605.28;;;11.23;85.43
44926;BME280;30662;51.210;7.656;2023-05-19T07:01:59;151657.16;;;11.44;87.15
44926;BME280;30662;51.210;7.656;2023-05-19T07:04:27;151668.56;;;11.49;82.69
44926;BME280;30662;51.210;7.656;2023-05-19T07:06:53;151724.31;;;11.71;83.81
44926;BME280;30662;51.210;7.656;2023-05-19T07:09:19;151699.00;;;11.61;80.11
44926;BME280;30662;51.210;7.656;2023-05-19T07:11:45;151725.56;;;11.72;79.68
44926;BME280;30662;51.210;7.656;2023-05-19T07:14:11;151749.72;;;11.81;80.33
44926;BME280;30662;51.210;7.656;2023-05-19T07:16:37;151757.31;;;11.84;78.66
44926;BME280;30662;51.210;7.656;2023-05-19T07:19:04;151813.06;;;12.07;79.96
44926;BME280;30662;51.210;7.656;2023-05-19T07:21:30;151804.22;;;12.03;76.69
44926;BME280;30662;51.210;7.656;2023-05-19T07:23:56;151799.13;;;12.01;77.19
44926;BME280;30662;51.210;7.656;2023-05-19T07:26:22;151801.69;;;12.02;75.48
44926;BME280;30662;51.210;7.656;2023-05-19T07:28:48;151809.28;;;12.05;77.90
44926;BME280;30662;51.210;7.656;2023-05-19T07:31:15;151844.75;;;12.20;76.07
44926;BME280;30662;51.210;7.656;2023-05-19T07:33:41;151827.00;;;12.12;75.25
44926;BME280;30662;51.210;7.656;2023-05-19T07:36:07;151906.84;;;12.45;75.76
44926;BME280;30662;51.210;7.656;2023-05-19T07:38:34;151942.34;;;12.59;72.25
44926;BME280;30662;51.210;7.656;2023-05-19T07:41:01;151930.97;;;12.54;72.83
44926;BME280;30662;51.210;7.656;2023-05-19T07:43:27;151911.94;;;12.47;70.40
44926;BME280;30662;51.210;7.656;2023-05-19T07:45:54;151905.59;;;12.44;70.46
44926;BME280;30662;51.210;7.656;2023-05-19T07:48:21;151911.94;;;12.47;72.86
44926;BME280;30662;51.210;7.656;2023-05-19T07:50:49;151955.03;;;12.64;74.49
44926;BME280;30662;51.210;7.656;2023-05-19T07:53:15;151969.00;;;12.69;70.92
44926;BME280;30662;51.210;7.656;2023-05-19T07:55:41;151966.47;;;12.68;70.26
44926;BME280;30662;51.210;7.656;2023-05-19T07:58:07;151966.47;;;12.68;70.68
44926;BME280;30662;51.210;7.656;2023-05-19T08:00:33;151970.25;;;12.70;70.82
44926;BME280;30662;51.210;7.656;2023-05-19T08:03:00;151922.06;;;12.51;69.05
44926;BME280;30662;51.210;7.656;2023-05-19T08:05:27;151866.31;;;12.28;71.52
44926;BME280;30662;51.210;7.656;2023-05-19T08:07:55;151927.13;;;12.53;72.28
44926;BME280;30662;51.210;7.656;2023-05-19T08:10:22;152018.47;;;12.89;73.76
44926;BME280;30662;51.210;7.656;2023-05-19T08:12:48;152042.53;;;12.99;68.81
44926;BME280;30662;51.210;7.656;2023-05-19T08:15:14;152092.00;;;13.19;67.46
44926;BME280;30662;51.210;7.656;2023-05-19T08:17:41;152121.19;;;13.31;72.34
44926;BME280;30662;51.210;7.656;2023-05-19T08:20:07;152189.72;;;13.58;68.24
44926;BME280;30662;51.210;7.656;2023-05-19T08:22:35;152135.16;;;13.36;62.89
44926;BME280;30662;51.210;7.656;2023-05-19T08:25:01;152152.91;;;13.43;63.27
44926;BME280;30662;51.210;7.656;2023-05-19T08:27:30;152137.69;;;13.37;63.22
44926;BME280;30662;51.210;7.656;2023-05-19T08:29:56;152144.00;;;13.40;61.54
44926;BME280;30662;51.210;7.656;2023-05-19T08:32:22;152160.50;;;13.46;62.26
44926;BME280;30662;51.210;7.656;2023-05-19T08:34:48;152123.72;;;13.32;59.35
44926;BME280;30662;51.210;7.656;2023-05-19T08:37:15;152076.78;;;13.13;59.40
44926;BME280;30662;51.210;7.656;2023-05-19T08:39:41;152099.66;;;13.22;60.58
44926;BME280;30662;51.210;7.656;2023-05-19T08:42:07;152100.91;;;13.22;60.12
44926;BME280;30662;51.210;7.656;2023-05-19T08:44:38;152159.25;;;13.46;60.06
44926;BME280;30662;51.210;7.656;2023-05-19T08:47:06;152175.75;;;13.52;59.40
44926;BME280;30662;51.210;7.656;2023-05-19T08:49:44;152146.59;;;13.41;60.59
44926;BME280;30662;51.210;7.656;2023-05-19T08:55:06;152175.75;;;13.52;62.11
44926;BME280;30662;51.210;7.656;2023-05-19T08:57:35;152198.63;;;13.62;59.82
44926;BME280;30662;51.210;7.656;2023-05-19T09:00:02;152234.09;;;13.76;56.93
44926;BME280;30662;51.210;7.656;2023-05-19T09:02:35;152270.94;;;13.91;56.15
44926;BME280;30662;51.210;7.656;2023-05-19T09:05:03;152284.84;;;13.96;56.68
44926;BME280;30662;51.210;7.656;2023-05-19T09:07:30;152262.03;;;13.87;57.11
44926;BME280;30662;51.210;7.656;2023-05-19T09:10:00;152273.47;;;13.92;57.73
44926;BME280;30662;51.210;7.656;2023-05-19T09:12:26;152328.03;;;14.14;57.00
44926;BME280;30662;51.210;7.656;2023-05-19T09:14:53;152347.06;;;14.21;57.84
44926;BME280;30662;51.210;7.656;2023-05-19T09:17:19;152405.44;;;14.45;55.19
44926;BME280;30662;51.210;7.656;2023-05-19T09:19:45;152321.66;;;14.11;53.59
44926;BME280;30662;51.210;7.656;2023-05-19T09:22:14;152316.59;;;14.09;55.33
44926;BME280;30662;51.210;7.656;2023-05-19T09:24:41;152278.53;;;13.94;57.63
44926;BME280;30662;51.210;7.656;2023-05-19T09:27:07;152326.78;;;14.13;57.49
44926;BME280;30662;51.210;7.656;2023-05-19T09:29:33;152388.94;;;14.38;56.62
44926;BME280;30662;51.210;7.656;2023-05-19T09:31:59;152423.28;;;14.52;56.20
44926;BME280;30662;51.210;7.656;2023-05-19T09:34:26;152453.75;;;14.64;54.22
44926;BME280;30662;51.210;7.656;2023-05-19T09:36:52;152441.03;;;14.59;55.05
44926;BME280;30662;51.210;7.656;2023-05-19T09:39:21;152490.56;;;14.79;55.36
44926;BME280;30662;51.210;7.656;2023-05-19T09:41:54;152517.22;;;14.89;55.03
44926;BME280;30662;51.210;7.656;2023-05-19T09:44:24;152575.63;;;15.13;53.11
44926;BME280;30662;51.210;7.656;2023-05-19T09:46:57;152611.19;;;15.27;53.07
44926;BME280;30662;51.210;7.656;2023-05-19T09:49:26;152604.84;;;15.25;51.83
44926;BME280;30662;51.210;7.656;2023-05-19T09:51:56;152634.06;;;15.36;51.28
44926;BME280;30662;51.210;7.656;2023-05-19T09:54:23;152706.53;;;15.65;51.45
44926;BME280;30662;51.210;7.656;2023-05-19T09:57:00;152817.06;;;16.10;51.27
44926;BME280;30662;51.210;7.656;2023-05-19T09:59:28;152787.81;;;15.98;48.99
44926;BME280;30662;51.210;7.656;2023-05-19T10:01:58;152778.97;;;15.94;50.62
44926;BME280;30662;51.210;7.656;2023-05-19T10:04:26;152757.31;;;15.86;48.33
44926;BME280;30662;51.210;7.656;2023-05-19T10:06:54;152838.66;;;16.18;49.11
44926;BME280;30662;51.210;7.656;2023-05-19T10:09:25;152927.66;;;16.54;46.82
44926;BME280;30662;51.210;7.656;2023-05-19T10:11:52;152894.59;;;16.41;46.10
44926;BME280;30662;51.210;7.656;2023-05-19T10:14:23;152923.84;;;16.52;47.37
44926;BME280;30662;51.210;7.656;2023-05-19T10:16:50;153009.03;;;16.87;46.35
44926;BME280;30662;51.210;7.656;2023-05-19T10:19:21;153012.88;;;16.88;45.74
44926;BME280;30662;51.210;7.656;2023-05-19T10:21:49;153062.44;;;17.08;44.06
44926;BME280;30662;51.210;7.656;2023-05-19T10:24:16;153080.25;;;17.15;44.00
44926;BME280;30662;51.210;7.656;2023-05-19T10:26:45;152992.50;;;16.80;44.46
44926;BME280;30662;51.210;7.656;2023-05-19T10:29:13;153012.88;;;16.88;45.52
44926;BME280;30662;51.210;7.656;2023-05-19T10:31:40;153068.84;;;17.11;45.16
44926;BME280;30662;51.210;7.656;2023-05-19T10:34:30;153044.63;;;17.01;44.25
44926;BME280;30662;51.210;7.656;2023-05-19T10:40:09;153187.09;;;17.58;42.52
44926;BME280;30662;51.210;7.656;2023-05-19T10:43:01;153255.84;;;17.85;42.34
44926;BME280;30662;51.210;7.656;2023-05-19T10:45:37;153294.03;;;18.01;41.59
44926;BME280;30662;51.210;7.656;2023-05-19T10:48:10;153203.63;;;17.64;40.03
44926;BME280;30662;51.210;7.656;2023-05-19T10:50:38;153194.75;;;17.61;41.28
44926;BME280;30662;51.210;7.656;2023-05-19T10:53:13;153306.75;;;18.06;42.24
44926;BME280;30662;51.210;7.656;2023-05-19T10:55:53;153323.31;;;18.12;40.91
44926;BME280;30662;51.210;7.656;2023-05-19T11:01:16;153469.72;;;18.71;39.16
44926;BME280;30662;51.210;7.656;2023-05-19T11:04:03;153628.88;;;19.35;38.85
44926;BME280;30662;51.210;7.656;2023-05-19T11:06:33;153651.78;;;19.44;39.01
44926;BME280;30662;51.210;7.656;2023-05-19T11:09:17;153570.28;;;19.11;37.84
44926;BME280;30662;51.210;7.656;2023-05-19T11:11:52;153574.13;;;19.13;38.51
44926;BME280;30662;51.210;7.656;2023-05-19T11:14:22;153544.81;;;19.01;38.73
44926;BME280;30662;51.210;7.656;2023-05-19T11:16:59;153661.97;;;19.48;38.45
44926;BME280;30662;51.210;7.656;2023-05-19T11:19:27;153594.50;;;19.21;37.66
44926;BME280;30662;51.210;7.656;2023-05-19T11:21:55;153664.53;;;19.49;37.45
44926;BME280;30662;51.210;7.656;2023-05-19T11:30:00;153735.94;;;19.77;36.34
44926;BME280;30662;51.210;7.656;2023-05-19T11:32:28;153760.13;;;19.87;36.69
44926;BME280;30662;51.210;7.656;2023-05-19T11:34:56;153749.91;;;19.83;36.11
44926;BME280;30662;51.210;7.656;2023-05-19T11:37:22;153784.31;;;19.97;36.57
44926;BME280;30662;51.210;7.656;2023-05-19T11:39:48;153842.91;;;20.20;35.84
44926;BME280;30662;51.210;7.656;2023-05-19T11:42:15;153915.59;;;20.49;34.96
44926;BME280;30662;51.210;7.656;2023-05-19T11:44:42;153972.97;;;20.72;35.83
44926;BME280;30662;51.210;7.656;2023-05-19T11:47:11;154020.13;;;20.91;34.96
44926;BME280;30662;51.210;7.656;2023-05-19T11:49:42;154057.09;;;21.06;33.18
44926;BME280;30662;51.210;7.656;2023-05-19T11:52:08;154021.38;;;20.91;34.38
44926;BME280;30662;51.210;7.656;2023-05-19T11:54:34;154013.75;;;20.88;33.34
44926;BME280;30662;51.210;7.656;2023-05-19T11:57:02;153971.72;;;20.72;33.69
44926;BME280;30662;51.210;7.656;2023-05-19T11:59:36;153794.53;;;20.01;33.83
44926;BME280;30662;51.210;7.656;2023-05-19T12:04:48;153947.47;;;20.62;34.24
44926;BME280;30662;51.210;7.656;2023-05-19T12:07:22;153892.63;;;20.40;33.23
44926;BME280;30662;51.210;7.656;2023-05-19T12:09:52;153937.28;;;20.58;33.96
44926;BME280;30662;51.210;7.656;2023-05-19T12:12:21;153983.16;;;20.76;32.62
44926;BME280;30662;51.210;7.656;2023-05-19T12:14:50;153905.41;;;20.45;32.76
44926;BME280;30662;51.210;7.656;2023-05-19T12:17:18;153979.34;;;20.75;33.31
44926;BME280;30662;51.210;7.656;2023-05-19T12:19:48;154006.09;;;20.85;33.80
44926;BME280;30662;51.210;7.656;2023-05-19T12:22:15;154002.28;;;20.84;31.89
44926;BME280;30662;51.210;7.656;2023-05-19T12:24:42;154037.97;;;20.98;32.91
44926;BME280;30662;51.210;7.656;2023-05-19T12:27:09;153961.50;;;20.68;32.85
44926;BME280;30662;51.210;7.656;2023-05-19T12:29:39;154064.75;;;21.09;32.89
44926;BME280;30662;51.210;7.656;2023-05-19T12:32:08;154013.75;;;20.88;32.32
44926;BME280;30662;51.210;7.656;2023-05-19T12:34:36;153974.25;;;20.73;31.97
44926;BME280;30662;51.210;7.656;2023-05-19T12:37:06;154122.19;;;21.32;34.04
44926;BME280;30662;51.210;7.656;2023-05-19T12:39:32;154197.41;;;21.62;32.52
44926;BME280;30662;51.210;7.656;2023-05-19T12:42:09;154233.13;;;21.76;31.07
44926;BME280;30662;51.210;7.656;2023-05-19T12:44:49;154191.06;;;21.59;31.43
44926;BME280;30662;51.210;7.656;2023-05-19T12:47:18;154327.56;;;22.14;30.93
44926;BME280;30662;51.210;7.656;2023-05-19T12:49:55;154266.28;;;21.89;30.82
44926;BME280;30662;51.210;7.656;2023-05-19T12:52:22;154029.06;;;20.95;31.13
44926;BME280;30662;51.210;7.656;2023-05-19T12:54:49;154036.69;;;20.98;29.69
44926;BME280;30662;51.210;7.656;2023-05-19T12:57:15;154108.09;;;21.26;29.25
44926;BME280;30662;51.210;7.656;2023-05-19T12:59:42;154154.06;;;21.44;29.95
44926;BME280;30662;51.210;7.656;2023-05-19T13:02:08;154114.50;;;21.29;30.41
44926;BME280;30662;51.210;7.656;2023-05-19T13:04:34;154233.13;;;21.76;30.34
44926;BME280;30662;51.210;7.656;2023-05-19T13:07:00;154168.06;;;21.50;29.55
44926;BME280;30662;51.210;7.656;2023-05-19T13:09:26;154207.63;;;21.66;30.42
44926;BME280;30662;51.210;7.656;2023-05-19T13:11:53;154240.75;;;21.79;28.84
44926;BME280;30662;51.210;7.656;2023-05-19T13:14:19;154113.22;;;21.28;28.16
44926;BME280;30662;51.210;7.656;2023-05-19T13:16:45;154133.63;;;21.36;28.74
44926;BME280;30662;51.210;7.656;2023-05-19T13:19:18;154179.56;;;21.55;28.90
44926;BME280;30662;51.210;7.656;2023-05-19T13:21:51;154185.91;;;21.57;30.04